Time;durP1;ratioP1;P1;durP2;ratioP2;P2;SDS_P1;SDS_P2;PMS_P1;PMS_P2;Temp;Humidity;BMP_temperature;BMP_pressure;BME280_temperature;BME280_humidity;BME280_pressure;Samples;Min_cycle;Max_cycle;Signal;HPM_P1;HPM_P2
2021/12/06 00:02:00;;;;;;;32.00;19.90;;;0.60;99.90;;;;;;5008491;28;20025;-48
2021/12/06 00:04:29;;;;;;;33.70;20.85;;;0.60;99.90;;;;;;5008464;28;20041;-49
2021/12/06 00:06:58;;;;;;;32.95;21.05;;;0.60;99.90;;;;;;5009277;28;20058;-51
2021/12/06 00:09:27;;;;;;;31.50;18.92;;;0.60;99.90;;;;;;5008916;28;20034;-54
2021/12/06 00:11:58;;;;;;;33.58;20.77;;;0.60;99.90;;;;;;5009436;28;20044;-49
2021/12/06 00:14:29;;;;;;;41.05;22.90;;;0.60;99.90;;;;;;5008336;28;20422;-49
2021/12/06 00:17:00;;;;;;;36.00;22.02;;;0.60;99.90;;;;;;5009220;28;20544;-51
2021/12/06 00:19:27;;;;;;;34.80;21.83;;;0.50;99.90;;;;;;5008723;28;20048;-53
2021/12/06 00:21:53;;;;;;;42.72;22.60;;;0.50;99.90;;;;;;5008682;28;20033;-55
2021/12/06 00:24:19;;;;;;;39.80;22.45;;;0.50;99.90;;;;;;5008645;28;20038;-50
2021/12/06 00:26:45;;;;;;;32.85;20.42;;;0.50;99.90;;;;;;5009244;28;20037;-51
2021/12/06 00:29:11;;;;;;;36.95;21.63;;;0.50;99.90;;;;;;5008705;28;20168;-54
2021/12/06 00:31:37;;;;;;;30.63;19.38;;;0.50;99.90;;;;;;5008997;28;20117;-49
2021/12/06 00:34:08;;;;;;;34.13;21.63;;;0.50;99.90;;;;;;5008629;28;20040;-55
2021/12/06 00:36:37;;;;;;;37.03;22.50;;;0.60;99.90;;;;;;5008122;28;20038;-48
2021/12/06 00:39:05;;;;;;;38.42;21.15;;;0.60;99.90;;;;;;5008364;28;20613;-48
2021/12/06 00:41:31;;;;;;;34.15;20.58;;;0.60;99.90;;;;;;5006617;28;20025;-52
2021/12/06 00:43:56;;;;;;;37.40;22.83;;;0.60;99.90;;;;;;5004100;28;20639;-50
2021/12/06 00:46:22;;;;;;;35.47;21.25;;;0.60;99.90;;;;;;5008361;28;20490;-49
2021/12/06 00:48:48;;;;;;;33.80;21.17;;;0.60;99.90;;;;;;5008040;28;20033;-52
2021/12/06 00:51:15;;;;;;;33.95;20.63;;;0.50;99.90;;;;;;5008444;28;20044;-51
2021/12/06 00:53:42;;;;;;;34.45;20.30;;;0.50;99.90;;;;;;4997604;28;20135;-50
2021/12/06 00:56:08;;;;;;;32.45;20.90;;;0.60;99.90;;;;;;4987208;28;20074;-56
2021/12/06 00:58:34;;;;;;;34.55;21.33;;;0.50;99.90;;;;;;4989292;28;20043;-55
2021/12/06 01:00:59;;;;;;;35.58;21.67;;;0.50;99.90;;;;;;5008387;28;20028;-56
2021/12/06 01:03:31;;;;;;;37.20;22.45;;;0.60;99.90;;;;;;5008149;28;20553;-50
2021/12/06 01:05:58;;;;;;;34.78;22.27;;;0.60;99.90;;;;;;4988945;28;20457;-48
2021/12/06 01:08:24;;;;;;;39.83;22.98;;;0.50;99.90;;;;;;5002532;28;20068;-49
2021/12/06 01:10:51;;;;;;;37.58;21.88;;;0.50;99.90;;;;;;5008108;28;20034;-51
2021/12/06 01:13:18;;;;;;;33.28;21.63;;;0.60;99.90;;;;;;4989868;28;20065;-48
2021/12/06 01:15:44;;;;;;;36.10;21.77;;;0.50;99.90;;;;;;4988933;28;20552;-48
2021/12/06 01:18:13;;;;;;;33.80;21.27;;;0.50;99.90;;;;;;5001728;28;20026;-48
2021/12/06 01:20:47;;;;;;;35.15;21.08;;;0.60;99.90;;;;;;5008152;28;20056;-51
2021/12/06 01:23:15;;;;;;;36.05;20.73;;;0.60;99.90;;;;;;4988151;28;20038;-50
2021/12/06 01:41:21;;;;;;;33.88;20.58;;;0.60;99.90;;;;;;4989033;28;20049;-51
2021/12/06 01:44:10;;;;;;;34.20;21.15;;;0.60;99.90;;;;;;4999405;28;20046;-49
2021/12/06 01:46:44;;;;;;;35.95;21.60;;;0.60;99.90;;;;;;4988633;28;20053;-49
2021/12/06 01:49:10;;;;;;;28.63;18.50;;;0.60;99.90;;;;;;5008612;28;20072;-50
2021/12/06 01:51:36;;;;;;;33.42;20.77;;;0.60;99.90;;;;;;5008322;28;20474;-51
2021/12/06 01:54:04;;;;;;;32.83;21.67;;;0.60;99.90;;;;;;5007762;28;20026;-51
2021/12/06 01:56:29;;;;;;;33.08;20.50;;;0.60;99.90;;;;;;5006828;28;20133;-51
2021/12/06 01:58:55;;;;;;;30.52;20.75;;;0.60;99.90;;;;;;5005127;28;20526;-57
2021/12/06 02:01:21;;;;;;;34.90;20.85;;;0.60;99.90;;;;;;5004127;28;20113;-49
2021/12/06 02:03:47;;;;;;;29.77;19.92;;;0.60;99.90;;;;;;5002923;28;20039;-49
2021/12/06 02:06:13;;;;;;;35.17;21.48;;;0.60;99.90;;;;;;5006381;28;20034;-48
2021/12/06 02:08:38;;;;;;;34.05;19.77;;;0.60;99.90;;;;;;5008099;28;20037;-51
2021/12/06 02:11:05;;;;;;;36.10;20.60;;;0.60;99.90;;;;;;5011904;28;20556;-51
2021/12/06 02:13:40;;;;;;;32.15;19.80;;;0.60;99.90;;;;;;5010648;28;20025;-51
2021/12/06 02:16:06;;;;;;;28.10;18.58;;;0.60;99.90;;;;;;4996064;28;20037;-51
2021/12/06 02:19:06;;;;;;;35.75;20.48;;;0.60;99.90;;;;;;5009832;28;20026;-53
2021/12/06 02:21:30;;;;;;;33.38;19.70;;;0.60;99.90;;;;;;5011823;28;20057;-49
2021/12/06 02:23:57;;;;;;;33.75;20.40;;;0.60;99.90;;;;;;5009571;28;20438;-55
2021/12/06 02:26:23;;;;;;;35.58;22.00;;;0.60;99.90;;;;;;5010817;28;20533;-48
2021/12/06 02:28:49;;;;;;;29.30;20.13;;;0.60;99.90;;;;;;5010861;28;20088;-49
2021/12/06 02:31:16;;;;;;;35.22;20.45;;;0.60;99.90;;;;;;5010349;28;20030;-50
2021/12/06 02:33:45;;;;;;;32.08;21.27;;;0.60;99.90;;;;;;5011378;28;20607;-50
2021/12/06 02:36:11;;;;;;;32.38;22.17;;;0.60;99.90;;;;;;5010532;28;20034;-55
2021/12/06 02:38:37;;;;;;;32.13;18.35;;;0.60;99.90;;;;;;5008963;28;20053;-51
2021/12/06 02:41:03;;;;;;;29.38;18.70;;;0.50;99.90;;;;;;5011276;28;20053;-49
2021/12/06 02:43:29;;;;;;;32.05;20.80;;;0.50;99.90;;;;;;5010845;28;20029;-47
2021/12/06 02:45:54;;;;;;;27.42;16.45;;;0.50;99.90;;;;;;5011136;28;20030;-56
2021/12/06 02:48:20;;;;;;;30.85;19.25;;;0.50;99.90;;;;;;5010981;28;20093;-51
2021/12/06 02:50:51;;;;;;;29.40;18.52;;;0.40;99.90;;;;;;5009900;28;20030;-51
2021/12/06 02:53:19;;;;;;;31.33;19.67;;;0.40;99.90;;;;;;5010645;28;20026;-51
2021/12/06 02:55:51;;;;;;;31.00;19.38;;;0.40;99.90;;;;;;5010635;28;20014;-51
2021/12/06 02:58:42;;;;;;;29.48;18.75;;;0.40;99.90;;;;;;5000119;28;20665;-51
2021/12/06 03:01:17;;;;;;;29.02;17.55;;;0.40;99.90;;;;;;5011204;28;20109;-47
2021/12/06 03:03:42;;;;;;;;;;;0.40;99.90;;;;;;4992231;28;20022;-48
2021/12/06 03:06:09;;;;;;;28.03;15.93;;;0.40;99.90;;;;;;4999808;28;19948;-48
2021/12/06 03:08:53;;;;;;;30.70;17.98;;;0.30;99.90;;;;;;5010843;28;20104;-48
2021/12/06 03:11:24;;;;;;;33.80;17.60;;;0.30;99.90;;;;;;5011088;28;20494;-48
2021/12/06 03:13:50;;;;;;;31.27;19.50;;;0.30;99.90;;;;;;5010482;28;20630;-52
2021/12/06 03:16:16;;;;;;;31.55;19.40;;;0.30;99.90;;;;;;5010540;28;20113;-55
2021/12/06 03:18:43;;;;;;;29.55;19.23;;;0.30;99.90;;;;;;5009145;28;20033;-51
2021/12/06 03:21:09;;;;;;;34.10;19.33;;;0.30;99.90;;;;;;5009783;28;20033;-48
2021/12/06 03:23:35;;;;;;;31.20;19.40;;;0.30;99.90;;;;;;5009975;28;20037;-50
2021/12/06 03:26:00;;;;;;;27.80;17.77;;;0.30;99.90;;;;;;5010101;28;20620;-48
2021/12/06 03:28:26;;;;;;;28.08;17.58;;;0.30;99.90;;;;;;5009490;28;20030;-54
2021/12/06 03:30:51;;;;;;;29.08;19.10;;;0.30;99.90;;;;;;5009823;28;20054;-49
2021/12/06 03:33:17;;;;;;;26.70;18.35;;;0.20;99.90;;;;;;5009435;28;20034;-47
2021/12/06 03:35:43;;;;;;;25.58;17.13;;;0.20;99.90;;;;;;5010059;28;20040;-49
2021/12/06 03:38:08;;;;;;;26.02;17.50;;;0.10;99.90;;;;;;5009500;28;20076;-52
2021/12/06 03:40:34;;;;;;;26.30;17.45;;;0.20;99.90;;;;;;5009905;28;20061;-55
2021/12/06 03:42:59;;;;;;;21.35;15.27;;;0.10;99.90;;;;;;5008238;28;20068;-49
2021/12/06 03:45:25;;;;;;;26.75;16.85;;;0.10;99.90;;;;;;5010038;28;20030;-51
2021/12/06 03:47:51;;;;;;;26.13;15.90;;;0.10;99.90;;;;;;5010186;28;20030;-52
2021/12/06 03:50:16;;;;;;;26.48;16.92;;;0.00;99.90;;;;;;5009363;28;20029;-48
2021/12/06 03:52:42;;;;;;;20.60;14.07;;;0.00;99.90;;;;;;5009386;28;20033;-49
2021/12/06 03:55:09;;;;;;;24.45;15.73;;;0.00;99.90;;;;;;5009167;28;20030;-51
2021/12/06 03:57:36;;;;;;;25.05;16.65;;;0.00;99.90;;;;;;5009294;28;20040;-56
2021/12/06 04:00:04;;;;;;;29.27;17.27;;;0.00;99.90;;;;;;5009433;28;20034;-53
2021/12/06 04:02:31;;;;;;;24.30;16.25;;;0.00;99.90;;;;;;5007785;28;20022;-52
2021/12/06 04:04:57;;;;;;;27.92;17.05;;;-0.10;99.90;;;;;;5009393;28;20037;-51
2021/12/06 04:07:23;;;;;;;29.40;17.75;;;-0.10;99.90;;;;;;5008131;28;20489;-49
2021/12/06 04:09:49;;;;;;;31.15;16.25;;;-0.10;99.90;;;;;;5008963;28;20543;-55
2021/12/06 04:12:16;;;;;;;25.95;15.73;;;-0.10;99.90;;;;;;5007963;28;20105;-49
2021/12/06 04:14:42;;;;;;;25.08;16.27;;;-0.10;99.90;;;;;;5008866;28;20022;-52
2021/12/06 04:17:08;;;;;;;24.85;15.18;;;-0.10;99.90;;;;;;5007362;28;20453;-55
2021/12/06 04:19:34;;;;;;;22.23;14.55;;;-0.10;99.90;;;;;;5008492;28;20068;-54
2021/12/06 04:22:00;;;;;;;21.55;15.15;;;-0.10;99.90;;;;;;5009562;28;20058;-49
2021/12/06 04:24:26;;;;;;;24.00;15.27;;;-0.20;99.90;;;;;;5008915;28;20056;-55
2021/12/06 04:26:52;;;;;;;23.58;15.00;;;-0.20;99.90;;;;;;5007584;28;20032;-48
2021/12/06 04:29:18;;;;;;;23.40;15.02;;;-0.20;99.90;;;;;;5008348;28;20041;-53
2021/12/06 04:31:51;;;;;;;24.58;14.45;;;-0.10;99.90;;;;;;5006722;28;20029;-53
2021/12/06 04:34:17;;;;;;;21.50;13.77;;;-0.10;99.90;;;;;;4996094;28;20033;-49
2021/12/06 04:36:44;;;;;;;20.38;14.70;;;-0.10;99.90;;;;;;5008765;28;20026;-51
2021/12/06 04:39:13;;;;;;;18.38;12.57;;;-0.10;99.90;;;;;;5008534;28;20034;-50
2021/12/06 04:41:40;;;;;;;21.08;13.50;;;-0.10;99.90;;;;;;5008485;28;20021;-51
2021/12/06 04:44:06;;;;;;;18.40;12.82;;;0.00;99.90;;;;;;5008310;28;20050;-50
2021/12/06 04:46:32;;;;;;;19.80;13.23;;;0.00;99.90;;;;;;5008381;28;20034;-49
2021/12/06 04:48:58;;;;;;;19.70;12.40;;;0.00;99.90;;;;;;5008138;28;20107;-55
2021/12/06 04:51:25;;;;;;;20.10;12.25;;;0.00;99.90;;;;;;5008503;28;20680;-50
2021/12/06 04:53:51;;;;;;;20.38;13.02;;;0.00;99.90;;;;;;5007879;28;20125;-49
2021/12/06 04:56:42;;;;;;;22.30;13.90;;;0.00;99.90;;;;;;5008342;28;20058;-49
2021/12/06 04:59:32;;;;;;;18.65;12.05;;;0.00;99.90;;;;;;5007132;28;20065;-48
2021/12/06 05:02:01;;;;;;;20.88;14.23;;;0.00;99.90;;;;;;5008432;28;20037;-52
2021/12/06 05:04:33;;;;;;;21.02;13.65;;;0.00;99.90;;;;;;5008025;28;20544;-55
2021/12/06 05:07:07;;;;;;;20.88;12.82;;;0.10;99.90;;;;;;5008595;28;20116;-48
2021/12/06 05:09:36;;;;;;;22.15;13.52;;;0.10;99.90;;;;;;5007102;28;20034;-53
2021/12/06 05:12:04;;;;;;;20.80;12.18;;;0.10;99.90;;;;;;5008994;28;20033;-48
2021/12/06 05:14:30;;;;;;;18.30;12.45;;;0.10;99.90;;;;;;5007954;28;20124;-49
2021/12/06 05:16:57;;;;;;;20.50;12.63;;;0.10;99.90;;;;;;5008069;28;20038;-52
2021/12/06 05:19:23;;;;;;;19.83;13.05;;;0.10;99.90;;;;;;5006212;28;20490;-50
2021/12/06 05:21:49;;;;;;;20.05;12.63;;;0.10;99.90;;;;;;5006566;28;20025;-49
2021/12/06 05:24:16;;;;;;;19.02;12.80;;;0.10;99.90;;;;;;5007858;28;20041;-52
2021/12/06 05:26:42;;;;;;;19.88;13.32;;;0.10;99.90;;;;;;5007829;28;20063;-54
2021/12/06 05:29:13;;;;;;;19.67;12.60;;;0.10;99.90;;;;;;5004342;28;20034;-51
2021/12/06 05:31:40;;;;;;;23.63;14.65;;;0.10;99.90;;;;;;5006484;28;20041;-51
2021/12/06 05:34:14;;;;;;;19.35;12.02;;;0.10;99.90;;;;;;5007510;28;20029;-51
2021/12/06 05:36:40;;;;;;;19.95;13.18;;;0.10;99.90;;;;;;5008087;28;20037;-58
2021/12/06 05:39:06;;;;;;;18.20;12.10;;;0.10;99.90;;;;;;5006357;28;20026;-57
2021/12/06 05:41:36;;;;;;;21.50;13.15;;;0.10;99.90;;;;;;5008213;28;20037;-56
2021/12/06 05:44:03;;;;;;;18.95;12.07;;;0.00;99.90;;;;;;5010240;28;20646;-50
2021/12/06 05:46:29;;;;;;;17.88;11.82;;;0.10;99.90;;;;;;4992524;28;20047;-52
2021/12/06 05:48:55;;;;;;;20.20;12.15;;;0.10;99.90;;;;;;5006624;28;20112;-52
2021/12/06 05:51:20;;;;;;;21.17;11.98;;;0.10;99.90;;;;;;5011823;28;20112;-55
2021/12/06 05:53:46;;;;;;;16.80;11.75;;;0.10;99.90;;;;;;5011306;28;20072;-50
2021/12/06 05:56:11;;;;;;;16.13;11.68;;;0.10;99.90;;;;;;4996455;28;20084;-50
2021/12/06 05:58:38;;;;;;;16.00;11.77;;;0.10;99.90;;;;;;5003668;28;20042;-48
2021/12/06 06:01:04;;;;;;;19.58;11.90;;;0.10;99.90;;;;;;4999291;28;20022;-48
2021/12/06 06:03:30;;;;;;;19.20;11.98;;;0.10;99.90;;;;;;5011140;28;20041;-50
2021/12/06 06:05:56;;;;;;;16.70;11.40;;;0.10;99.90;;;;;;5011316;28;20021;-50
2021/12/06 06:08:22;;;;;;;14.93;10.95;;;0.10;99.90;;;;;;5011019;28;20038;-51
2021/12/06 06:10:50;;;;;;;18.80;11.63;;;0.10;99.90;;;;;;5007570;28;20038;-48
2021/12/06 06:13:17;;;;;;;19.83;10.75;;;0.00;99.90;;;;;;5011076;28;20383;-49
2021/12/06 06:15:43;;;;;;;15.27;10.48;;;0.10;99.90;;;;;;5011133;28;20045;-49
2021/12/06 06:18:09;;;;;;;16.67;11.18;;;0.10;99.90;;;;;;5010944;28;20018;-50
2021/12/06 06:20:41;;;;;;;17.65;11.27;;;0.00;99.90;;;;;;5011019;28;20037;-51
2021/12/06 06:23:06;;;;;;;20.08;11.60;;;0.00;99.90;;;;;;5007389;28;20478;-49
2021/12/06 06:25:32;;;;;;;15.52;10.45;;;0.00;99.90;;;;;;5011159;28;20018;-50
2021/12/06 06:27:58;;;;;;;17.55;11.60;;;0.00;99.90;;;;;;5010641;28;20534;-53
2021/12/06 06:30:24;;;;;;;16.42;10.57;;;0.00;99.90;;;;;;5011118;28;20128;-50
2021/12/06 06:32:50;;;;;;;17.58;11.43;;;0.00;99.90;;;;;;5011015;28;20026;-51
2021/12/06 06:35:17;;;;;;;15.70;10.70;;;0.00;99.90;;;;;;5011394;28;20116;-51
2021/12/06 06:37:43;;;;;;;16.52;10.43;;;0.00;99.90;;;;;;5010568;28;20038;-50
2021/12/06 06:40:10;;;;;;;15.20;9.02;;;0.00;99.90;;;;;;5009556;28;20026;-52
2021/12/06 06:42:36;;;;;;;15.93;9.82;;;0.00;99.90;;;;;;5010530;28;20030;-54
2021/12/06 06:45:05;;;;;;;19.02;10.85;;;0.10;99.90;;;;;;5010163;28;20056;-54
2021/12/06 06:47:31;;;;;;;14.82;10.13;;;0.00;99.90;;;;;;5010261;28;20048;-51
2021/12/06 06:49:57;;;;;;;17.15;10.88;;;0.10;99.90;;;;;;5010569;28;20120;-48
2021/12/06 06:52:22;;;;;;;14.10;9.48;;;0.10;99.90;;;;;;5010831;28;20037;-54
2021/12/06 06:54:48;;;;;;;14.05;10.35;;;0.00;99.90;;;;;;5008975;28;20034;-51
2021/12/06 06:57:14;;;;;;;14.75;8.95;;;0.00;99.90;;;;;;5010587;28;20091;-50
2021/12/06 06:59:39;;;;;;;15.07;9.40;;;0.00;99.90;;;;;;5009797;28;20104;-51
2021/12/06 07:02:05;;;;;;;14.40;8.70;;;0.00;99.90;;;;;;5010714;28;20033;-52
2021/12/06 07:04:31;;;;;;;15.15;9.38;;;-0.10;99.90;;;;;;5003376;28;20048;-55
2021/12/06 07:06:57;;;;;;;14.13;9.38;;;-0.10;99.90;;;;;;5010575;28;20038;-49
2021/12/06 07:09:23;;;;;;;13.05;8.75;;;-0.10;99.90;;;;;;5010260;28;20522;-48
2021/12/06 07:11:50;;;;;;;11.02;8.30;;;-0.10;99.90;;;;;;5008990;28;20029;-54
2021/12/06 07:14:16;;;;;;;13.20;9.43;;;-0.10;99.90;;;;;;4997593;28;20034;-50
2021/12/06 07:16:43;;;;;;;15.15;9.13;;;-0.10;99.90;;;;;;5010082;28;20091;-49
2021/12/06 07:19:09;;;;;;;14.10;9.50;;;-0.10;99.90;;;;;;5008577;28;20037;-54
2021/12/06 07:21:35;;;;;;;12.70;8.70;;;-0.10;99.90;;;;;;5010295;28;20026;-50
2021/12/06 07:24:01;;;;;;;14.20;9.23;;;-0.10;99.90;;;;;;5009543;28;20044;-51
2021/12/06 07:26:27;;;;;;;11.93;8.85;;;-0.20;99.90;;;;;;5010326;28;20037;-54
2021/12/06 07:28:56;;;;;;;12.93;8.57;;;-0.10;99.90;;;;;;5009487;28;20034;-51
2021/12/06 07:31:23;;;;;;;11.07;8.18;;;-0.20;99.90;;;;;;5009439;28;20161;-56
2021/12/06 07:33:50;;;;;;;12.75;8.10;;;-0.10;99.90;;;;;;5009486;28;20065;-52
2021/12/06 07:36:21;;;;;;;10.32;7.25;;;-0.10;99.90;;;;;;5008232;28;20160;-52
2021/12/06 07:38:47;;;;;;;12.98;8.52;;;-0.10;99.90;;;;;;5007083;28;20053;-51
2021/12/06 07:41:15;;;;;;;12.60;8.18;;;-0.10;99.90;;;;;;5009149;28;20053;-54
2021/12/06 07:43:41;;;;;;;10.95;8.07;;;-0.10;99.90;;;;;;5008869;28;20092;-51
2021/12/06 07:46:08;;;;;;;11.18;7.82;;;-0.10;99.90;;;;;;5009203;28;20080;-52
2021/12/06 07:48:33;;;;;;;11.15;7.22;;;-0.10;99.90;;;;;;5009207;28;20041;-49
2021/12/06 07:51:00;;;;;;;12.05;7.68;;;-0.10;99.90;;;;;;5009493;28;20034;-53
2021/12/06 07:53:28;;;;;;;11.88;7.82;;;-0.10;99.90;;;;;;5008900;28;20038;-51
2021/12/06 07:55:53;;;;;;;11.50;8.38;;;-0.10;99.90;;;;;;5007900;28;20038;-52
2021/12/06 07:58:19;;;;;;;11.43;7.63;;;-0.10;99.90;;;;;;5007667;28;20030;-51
2021/12/06 08:00:46;;;;;;;9.93;7.65;;;-0.10;99.90;;;;;;5008728;28;20084;-50
2021/12/06 08:03:13;;;;;;;10.02;7.57;;;-0.10;99.90;;;;;;5008046;28;20630;-52
2021/12/06 08:05:43;;;;;;;10.82;7.65;;;-0.10;99.90;;;;;;5007135;28;20682;-50
2021/12/06 08:08:11;;;;;;;12.10;8.73;;;-0.10;99.90;;;;;;5007865;28;20389;-50
2021/12/06 08:10:40;;;;;;;10.38;7.95;;;-0.10;99.90;;;;;;5008915;28;20025;-51
2021/12/06 08:13:06;;;;;;;11.85;8.63;;;0.00;99.90;;;;;;5008224;28;20032;-49
2021/12/06 08:15:33;;;;;;;10.82;8.18;;;0.00;99.90;;;;;;5008972;28;20101;-51
2021/12/06 08:17:58;;;;;;;10.25;8.05;;;0.00;99.90;;;;;;5009203;28;20029;-48
2021/12/06 08:20:24;;;;;;;11.77;7.93;;;0.00;99.90;;;;;;5008781;28;20026;-53
2021/12/06 08:22:50;;;;;;;13.68;8.68;;;0.00;99.90;;;;;;5008839;28;20669;-51
2021/12/06 08:25:17;;;;;;;11.35;8.65;;;0.10;99.90;;;;;;5008671;28;20064;-52
2021/12/06 08:27:43;;;;;;;14.05;8.77;;;0.10;99.90;;;;;;5008700;28;20034;-49
2021/12/06 08:30:11;;;;;;;11.55;8.15;;;0.10;99.90;;;;;;5008853;28;20034;-50
2021/12/06 08:32:37;;;;;;;11.55;7.97;;;0.10;99.90;;;;;;5009191;28;20038;-54
2021/12/06 08:35:05;;;;;;;10.73;7.55;;;0.10;99.90;;;;;;5008300;28;20113;-52
2021/12/06 08:37:30;;;;;;;10.95;8.25;;;0.10;99.90;;;;;;5008451;28;20033;-55
2021/12/06 08:39:56;;;;;;;12.10;8.05;;;0.10;99.90;;;;;;5009058;28;20026;-48
2021/12/06 08:42:22;;;;;;;14.05;7.88;;;0.10;99.90;;;;;;5008108;28;20470;-53
2021/12/06 08:44:48;;;;;;;13.55;8.20;;;0.10;99.90;;;;;;5008916;28;20528;-57
2021/12/06 08:47:15;;;;;;;14.02;8.27;;;0.10;99.90;;;;;;5008908;28;20045;-60
2021/12/06 08:49:41;;;;;;;13.07;8.57;;;0.20;99.90;;;;;;5007992;28;20053;-50
2021/12/06 08:52:07;;;;;;;12.15;8.85;;;0.20;99.90;;;;;;5008822;28;20073;-53
2021/12/06 08:54:32;;;;;;;13.88;8.45;;;0.20;99.90;;;;;;5008514;28;20034;-53
2021/12/06 08:57:00;;;;;;;13.48;8.63;;;0.20;99.90;;;;;;5008294;28;20030;-55
2021/12/06 08:59:27;;;;;;;12.55;8.43;;;0.20;99.90;;;;;;5007177;28;20113;-55
2021/12/06 09:01:57;;;;;;;13.82;8.35;;;0.30;99.90;;;;;;5007475;28;20045;-51
2021/12/06 09:04:24;;;;;;;11.73;8.20;;;0.30;99.90;;;;;;5008228;28;20030;-53
2021/12/06 09:06:52;;;;;;;11.80;8.05;;;0.40;99.90;;;;;;5006185;28;20030;-51
2021/12/06 09:09:20;;;;;;;12.90;7.93;;;0.40;99.90;;;;;;5007351;28;20509;-53
2021/12/06 09:11:46;;;;;;;11.75;8.60;;;0.40;99.90;;;;;;5005598;28;20497;-50
2021/12/06 09:14:13;;;;;;;12.23;8.18;;;0.40;99.90;;;;;;5006934;28;20030;-54
2021/12/06 09:16:39;;;;;;;12.82;8.73;;;0.40;99.90;;;;;;5007507;28;20037;-56
2021/12/06 09:19:07;;;;;;;11.40;7.97;;;0.40;99.90;;;;;;5010333;28;20026;-58
2021/12/06 09:21:36;;;;;;;11.70;8.10;;;0.50;99.90;;;;;;5011491;28;20018;-58
2021/12/06 09:24:04;;;;;;;12.88;8.20;;;0.50;99.90;;;;;;5011721;28;20040;-50
2021/12/06 09:26:30;;;;;;;11.98;7.50;;;0.50;99.90;;;;;;5011122;28;20029;-52
2021/12/06 09:28:56;;;;;;;12.27;8.00;;;0.50;99.90;;;;;;5011809;28;20044;-52
2021/12/06 09:31:22;;;;;;;8.85;7.18;;;0.60;99.90;;;;;;5011327;28;20494;-54
2021/12/06 09:33:48;;;;;;;14.60;8.65;;;0.60;99.90;;;;;;5012538;28;20081;-51
2021/12/06 09:36:14;;;;;;;9.57;7.22;;;0.60;99.90;;;;;;5012512;28;20065;-52
2021/12/06 09:38:42;;;;;;;10.10;6.93;;;0.60;99.90;;;;;;5012105;28;20026;-49
2021/12/06 09:41:23;;;;;;;11.40;7.60;;;0.60;99.90;;;;;;5010938;28;20053;-58
2021/12/06 09:43:51;;;;;;;13.95;8.07;;;0.60;99.90;;;;;;5011946;28;20116;-51
2021/12/06 09:46:21;;;;;;;9.30;7.45;;;0.60;99.90;;;;;;5012037;28;20048;-53
2021/12/06 09:48:48;;;;;;;11.35;6.90;;;0.60;99.90;;;;;;5010261;28;20041;-51
2021/12/06 09:51:21;;;;;;;12.57;7.72;;;0.70;99.90;;;;;;5011610;28;20061;-56
2021/12/06 09:53:49;;;;;;;11.45;8.15;;;0.70;99.90;;;;;;5009670;28;20037;-52
2021/12/06 09:56:23;;;;;;;10.52;6.80;;;0.70;99.90;;;;;;5011860;28;20040;-48
2021/12/06 09:58:50;;;;;;;14.55;7.97;;;0.70;99.90;;;;;;5010865;28;20025;-52
2021/12/06 10:01:21;;;;;;;10.77;7.25;;;0.70;99.90;;;;;;5011044;28;20049;-48
2021/12/06 10:03:49;;;;;;;10.18;7.40;;;0.70;99.90;;;;;;5011709;28;20026;-50
2021/12/06 10:06:16;;;;;;;9.85;7.43;;;0.70;99.90;;;;;;5010679;28;20064;-51
2021/12/06 10:08:44;;;;;;;13.57;8.23;;;0.80;99.90;;;;;;5011508;28;20034;-50
2021/12/06 10:11:13;;;;;;;12.38;8.60;;;0.80;99.90;;;;;;5010205;28;20469;-49
2021/12/06 10:13:40;;;;;;;12.00;8.85;;;0.90;99.90;;;;;;5012784;28;20067;-55
2021/12/06 10:16:08;;;;;;;13.57;9.00;;;1.00;99.90;;;;;;5010563;28;20109;-51
2021/12/06 10:18:34;;;;;;;14.55;9.30;;;1.00;99.90;;;;;;5011320;28;20080;-50
2021/12/06 10:21:01;;;;;;;13.73;9.55;;;1.00;99.90;;;;;;5010721;28;20029;-48
2021/12/06 10:23:27;;;;;;;12.45;8.80;;;1.00;99.90;;;;;;5009719;28;20080;-55
2021/12/06 10:25:54;;;;;;;14.55;9.98;;;1.00;99.90;;;;;;5011196;28;20430;-53
2021/12/06 10:28:24;;;;;;;13.00;9.60;;;1.10;99.90;;;;;;5010625;28;20071;-51
2021/12/06 10:30:54;;;;;;;13.30;8.73;;;1.10;99.90;;;;;;5009387;28;20116;-50
2021/12/06 10:33:25;;;;;;;12.63;9.38;;;1.10;99.90;;;;;;5010037;28;20547;-53
2021/12/06 10:35:57;;;;;;;13.60;9.70;;;1.20;99.90;;;;;;5010308;28;20051;-55
2021/12/06 10:38:28;;;;;;;12.10;9.60;;;1.20;99.90;;;;;;5010349;28;20026;-52
2021/12/06 10:41:10;;;;;;;12.82;8.73;;;1.20;99.90;;;;;;5010768;28;20509;-51
2021/12/06 10:43:37;;;;;;;12.52;8.55;;;1.20;99.90;;;;;;5008836;28;20861;-50
2021/12/06 10:46:05;;;;;;;14.13;10.25;;;1.20;99.90;;;;;;5010551;28;20018;-53
2021/12/06 10:48:35;;;;;;;17.10;10.82;;;1.20;99.90;;;;;;5011099;28;20060;-51
2021/12/06 10:51:06;;;;;;;13.77;9.43;;;1.30;99.90;;;;;;5009579;28;20083;-48
2021/12/06 10:54:05;;;;;;;17.00;10.68;;;1.30;99.90;;;;;;5010286;28;20034;-52
2021/12/06 10:56:42;;;;;;;18.13;10.95;;;1.30;99.90;;;;;;4991276;28;20046;-49
2021/12/06 10:59:29;;;;;;;16.00;11.25;;;1.40;99.90;;;;;;5002239;28;20119;-50
2021/12/06 11:02:02;;;;;;;14.98;10.80;;;1.40;99.90;;;;;;5013425;28;20112;-51
2021/12/06 11:04:28;;;;;;;17.98;11.35;;;1.40;99.90;;;;;;5011337;28;20802;-49
2021/12/06 11:07:04;;;;;;;15.18;10.15;;;1.30;99.90;;;;;;5006780;28;20486;-54
2021/12/06 11:09:31;;;;;;;14.52;10.85;;;1.30;99.90;;;;;;5009529;28;20132;-57
2021/12/06 11:12:00;;;;;;;16.80;11.60;;;1.30;99.90;;;;;;5010172;28;20103;-52
2021/12/06 11:14:27;;;;;;;18.83;12.07;;;1.30;99.90;;;;;;5009787;28;20116;-51
2021/12/06 11:16:56;;;;;;;18.02;12.52;;;1.30;99.90;;;;;;5009070;28;20449;-54
2021/12/06 11:19:23;;;;;;;18.95;13.18;;;1.30;99.90;;;;;;5006975;28;20575;-51
2021/12/06 11:21:55;;;;;;;19.77;13.23;;;1.30;99.90;;;;;;5007414;28;20033;-53
2021/12/06 11:24:32;;;;;;;20.90;13.40;;;1.30;99.90;;;;;;5008152;28;20029;-52
2021/12/06 11:27:11;;;;;;;19.48;12.95;;;1.30;99.90;;;;;;5008091;28;20052;-51
2021/12/06 11:29:50;;;;;;;17.25;12.88;;;1.30;99.90;;;;;;5007883;28;20042;-55
2021/12/06 11:32:19;;;;;;;19.77;12.77;;;1.30;99.90;;;;;;5008955;28;20071;-51
2021/12/06 11:34:54;;;;;;;16.35;12.85;;;1.30;99.90;;;;;;5004741;28;20030;-47
2021/12/06 11:37:24;;;;;;;21.00;12.82;;;1.20;99.90;;;;;;5008404;28;20101;-49
2021/12/06 11:40:02;;;;;;;19.05;12.98;;;1.20;99.90;;;;;;5008422;28;20099;-51
2021/12/06 11:42:27;;;;;;;18.25;12.25;;;1.20;99.90;;;;;;5007076;28;20387;-51
2021/12/06 11:44:53;;;;;;;21.30;13.57;;;1.20;99.90;;;;;;5008549;28;20053;-51
2021/12/06 11:47:20;;;;;;;21.92;14.95;;;1.20;99.90;;;;;;5004978;28;20037;-49
2021/12/06 11:49:56;;;;;;;17.27;12.45;;;1.20;99.90;;;;;;5007889;28;20410;-52
2021/12/06 11:52:28;;;;;;;19.77;14.07;;;1.20;99.90;;;;;;5008978;28;20072;-55
2021/12/06 11:55:10;;;;;;;23.75;15.15;;;1.10;99.90;;;;;;5008297;28;20065;-48
2021/12/06 11:57:41;;;;;;;24.42;13.90;;;1.20;99.90;;;;;;5008940;28;20101;-54
2021/12/06 12:00:20;;;;;;;22.88;14.43;;;1.10;99.90;;;;;;5009376;28;20014;-54
2021/12/06 12:02:53;;;;;;;21.83;13.45;;;1.10;99.90;;;;;;5007678;28;20041;-48
2021/12/06 12:05:32;;;;;;;22.05;14.15;;;1.10;99.90;;;;;;5008966;28;20062;-49
2021/12/06 12:08:11;;;;;;;20.02;13.10;;;1.10;99.90;;;;;;5009117;28;20447;-57
2021/12/06 12:10:54;;;;;;;22.00;14.52;;;1.10;99.90;;;;;;5009445;28;20113;-50
2021/12/06 12:13:26;;;;;;;19.63;13.00;;;1.10;99.90;;;;;;5008525;28;20048;-56
2021/12/06 12:16:13;;;;;;;20.80;14.85;;;1.10;99.90;;;;;;5008865;28;20018;-50
2021/12/06 12:18:41;;;;;;;22.58;13.93;;;1.10;99.90;;;;;;5010481;28;20021;-53
2021/12/06 12:21:08;;;;;;;20.98;13.68;;;1.10;99.90;;;;;;5006956;28;20441;-56
2021/12/06 12:23:35;;;;;;;23.55;14.25;;;1.10;99.90;;;;;;5009393;28;20041;-57
2021/12/06 12:26:06;;;;;;;24.77;15.63;;;1.10;99.90;;;;;;5009349;28;20092;-51
2021/12/06 12:28:36;;;;;;;21.90;15.15;;;1.10;99.90;;;;;;5008215;28;20572;-48
2021/12/06 12:31:04;;;;;;;25.70;15.65;;;1.10;99.90;;;;;;5009085;28;20049;-53
2021/12/06 12:33:30;;;;;;;24.38;14.20;;;1.10;99.90;;;;;;5008435;28;20097;-53
2021/12/06 12:36:03;;;;;;;22.73;14.82;;;1.10;99.90;;;;;;5009040;28;20096;-51
2021/12/06 12:38:33;;;;;;;24.75;15.13;;;1.10;99.90;;;;;;5008923;28;20030;-54
2021/12/06 12:41:03;;;;;;;23.60;15.57;;;1.10;99.90;;;;;;5009017;28;20026;-56
2021/12/06 12:43:43;;;;;;;23.67;15.07;;;1.10;99.90;;;;;;5008933;28;20030;-55
2021/12/06 12:46:24;;;;;;;23.33;14.90;;;1.00;99.90;;;;;;5008492;28;20026;-48
2021/12/06 12:48:58;;;;;;;24.00;15.38;;;1.10;99.90;;;;;;5009044;28;20026;-50
2021/12/06 12:51:29;;;;;;;24.60;14.45;;;1.00;99.90;;;;;;5008187;28;20029;-49
2021/12/06 12:54:01;;;;;;;20.80;14.43;;;1.00;99.90;;;;;;5008309;28;20089;-54
2021/12/06 12:56:28;;;;;;;24.80;14.15;;;1.00;99.90;;;;;;5007689;28;20021;-52
2021/12/06 12:58:54;;;;;;;22.48;14.82;;;1.00;99.90;;;;;;5007920;28;20030;-53
2021/12/06 13:01:24;;;;;;;20.55;13.93;;;1.00;99.90;;;;;;5008503;28;20049;-53